This is the latest recevied weather packets stored in our database for station/object OK4ZAW-16. If no packets are shown the sender has not sent any weather packets the latest 10 day(s).
| Time | Temp. | Humidity | Pressure | Rain* | Wind** | Luminosity | Snow |
|---|---|---|---|---|---|---|---|
| 1777393072 | 5° C | 43% | 1022.1 hPa | - | - | 150 W/m² | - |
| 1777392656 | 5° C | 42% | 1022.2 hPa | - | - | 150 W/m² | - |
| 1777392240 | 5.56° C | 41% | 1022.2 hPa | - | - | 150 W/m² | - |
| 1777391824 | 6.11° C | 42% | 1022.3 hPa | - | - | 150 W/m² | - |
| 1777391408 | 6.11° C | 41% | 1022.2 hPa | - | - | 150 W/m² | - |
| 1777390992 | 6.67° C | 40% | 1022.2 hPa | - | - | 150 W/m² | - |
| 1777390576 | 7.78° C | 39% | 1022.3 hPa | - | - | 150 W/m² | - |
| 1777390159 | 8.33° C | 40% | 1022.3 hPa | - | - | 150 W/m² | - |
| 1777389743 | 8.89° C | 38% | 1022.4 hPa | - | - | 150 W/m² | - |
| 1777389327 | 9.44° C | 38% | 1022.4 hPa | - | - | 150 W/m² | - |
| 1777388911 | 9.44° C | 42% | 1022.4 hPa | - | - | 150 W/m² | - |
| 1777388494 | 8.33° C | 44% | 1022.5 hPa | - | - | 150 W/m² | - |
| 1777388077 | 8.89° C | 45% | 1022.6 hPa | - | - | 150 W/m² | - |
| 1777387661 | 10° C | 41% | 1022.6 hPa | - | - | 150 W/m² | - |
| 1777386828 | 11.67° C | 41% | 1022.5 hPa | - | - | 150 W/m² | - |
| 1777386411 | 12.22° C | 41% | 1022.5 hPa | - | - | 150 W/m² | - |
| 1777385994 | 12.22° C | 45% | 1022.7 hPa | - | - | 150 W/m² | - |
| 1777385161 | 11.11° C | 48% | 1022.8 hPa | - | - | 150 W/m² | - |
| 1777384745 | 10.56° C | 50% | 1022.8 hPa | - | - | 150 W/m² | - |
| 1777384329 | 10.56° C | 51% | 1022.8 hPa | - | - | 150 W/m² | - |
| 1777383912 | 10° C | 54% | 1022.8 hPa | - | - | 150 W/m² | - |
| 1777383496 | 10.56° C | 54% | 1022.7 hPa | - | - | 150 W/m² | - |
| 1777383079 | 10.56° C | 58% | 1022.8 hPa | - | - | 150 W/m² | - |
| 1777382663 | 10° C | 62% | 1022.9 hPa | - | - | 150 W/m² | - |
| 1777382247 | 9.44° C | 64% | 1022.9 hPa | - | - | 150 W/m² | - |
* Rain since midnight (hover to see other rain measurements)
** Current wind speed in m/s (hover to see current wind gust speed)